Welwyn, United Kingdom
Current Conditions -  °F | °C
As of 10:50 PM on Sunday 21 Dec 2014 (Local Time) from EGGW Reporting Station
Overcast Overcast  
Wind Chill: 52°   Ceiling: 1300
Heat Index: 52°   Visibility: 6mi
Dew Point: 48°   Wind: 22mph
Humidity: 88%   Direction: 240°WSW
Pressure: 30.12"   Gusts: 35mph
Location:  51.81°N, 0.18°W
Report Text: EGGW 212250Z 24019G30KT 9999 OVC013 11/09 Q1020
Loading
Personal Weather Stations






























Interactive Weather Map New forecast layout! Learn more

10-Day Weather Forecast

Advertisements
Track Severe Weather on mobile